地図

経路データ

SID SEASON NUMBER BASIN SUBBASIN NAME ISO_TIME NATURE LAT LON WMO_WIND WMO_PRES WMO_AGENCY TRACK_TYPE DIST2LAND LANDFALL IFLAG USA_AGENCY USA_ATCF_ID USA_LAT USA_LON USA_RECORD USA_STATUS USA_WIND USA_PRES USA_SSHS USA_R34_NE USA_R34_SE USA_R34_SW USA_R34_NW USA_R50_NE USA_R50_SE USA_R50_SW USA_R50_NW USA_R64_NE USA_R64_SE USA_R64_SW USA_R64_NW USA_POCI USA_ROCI USA_RMW USA_EYE TOKYO_LAT TOKYO_LON TOKYO_GRADE TOKYO_WIND TOKYO_PRES TOKYO_R50_DIR TOKYO_R50_LONG TOKYO_R50_SHORT TOKYO_R30_DIR TOKYO_R30_LONG TOKYO_R30_SHORT TOKYO_LAND CMA_LAT CMA_LON CMA_CAT CMA_WIND CMA_PRES HKO_LAT HKO_LON HKO_CAT HKO_WIND HKO_PRES NEWDELHI_LAT NEWDELHI_LON NEWDELHI_GRADE NEWDELHI_WIND NEWDELHI_PRES NEWDELHI_CI NEWDELHI_DP NEWDELHI_POCI REUNION_LAT REUNION_LON REUNION_TYPE REUNION_WIND REUNION_PRES REUNION_TNUM REUNION_CI REUNION_RMW REUNION_R34_NE REUNION_R34_SE REUNION_R34_SW REUNION_R34_NW REUNION_R50_NE REUNION_R50_SE REUNION_R50_SW REUNION_R50_NW REUNION_R64_NE REUNION_R64_SE REUNION_R64_SW REUNION_R64_NW BOM_LAT BOM_LON BOM_TYPE BOM_WIND BOM_PRES BOM_TNUM BOM_CI BOM_RMW BOM_R34_NE BOM_R34_SE BOM_R34_SW BOM_R34_NW BOM_R50_NE BOM_R50_SE BOM_R50_SW BOM_R50_NW BOM_R64_NE BOM_R64_SE BOM_R64_SW BOM_R64_NW BOM_ROCI BOM_POCI BOM_EYE BOM_POS_METHOD BOM_PRES_METHOD NADI_LAT NADI_LON NADI_CAT NADI_WIND NADI_PRES WELLINGTON_LAT WELLINGTON_LON WELLINGTON_WIND WELLINGTON_PRES DS824_LAT DS824_LON DS824_STAGE DS824_WIND DS824_PRES TD9636_LAT TD9636_LON TD9636_STAGE TD9636_WIND TD9636_PRES TD9635_LAT TD9635_LON TD9635_WIND TD9635_PRES TD9635_ROCI NEUMANN_LAT NEUMANN_LON NEUMANN_CLASS NEUMANN_WIND NEUMANN_PRES MLC_LAT MLC_LON MLC_CLASS MLC_WIND MLC_PRES USA_GUST BOM_GUST BOM_GUST_PER REUNION_GUST REUNION_GUST_PER USA_SEAHGT USA_SEARAD_NE USA_SEARAD_SE USA_SEARAD_SW USA_SEARAD_NW STORM_SPEED STORM_DIR
1964286N10112 1964 96 WP MM NOT_NAMED 1964-10-11 12:00:00 NR 9.90000 111.700 main 339 326 __________O___ -1 9.90000 111.700 1 4 236
1964286N10112 1964 96 WP MM NOT_NAMED 1964-10-11 15:00:00 NR 9.77980 111.514 main 326 315 __________P___ -1 9.77980 111.514 1 4 237
1964286N10112 1964 96 WP MM NOT_NAMED 1964-10-11 18:00:00 NR 9.65765 111.322 main 315 313 __________P___ -1 9.65765 111.322 1 5 237
1964286N10112 1964 96 WP MM NOT_NAMED 1964-10-11 21:00:00 NR 9.53167 111.120 main 313 305 __________P___ -1 9.53167 111.120 1 5 238
1964286N10112 1964 96 WP MM NOT_NAMED 1964-10-12 00:00:00 NR 9.40000 110.900 main 305 298 __________O___ -1 9.40000 110.900 1 5 239
1964286N10112 1964 96 WP MM NOT_NAMED 1964-10-12 03:00:00 NR 9.26264 110.657 main 299 290 __________P___ -1 9.26264 110.657 1 6 242
1964286N10112 1964 96 WP MM NOT_NAMED 1964-10-12 06:00:00 NR 9.12722 110.382 main 299 286 __________P___ -1 9.12722 110.382 1 6 246
1964286N10112 1964 96 WP MM NOT_NAMED 1964-10-12 09:00:00 NR 9.00319 110.067 main 290 271 __________P___ -1 9.00319 110.067 1 7 251
1964286N10112 1964 96 WP MM NOT_NAMED 1964-10-12 12:00:00 NR 8.90000 109.700 main 271 256 __________O___ -1 8.90000 109.700 1 8 256
1964286N10112 1964 96 WP MM NOT_NAMED 1964-10-12 15:00:00 NR 8.80443 109.239 main 250 234 __________P___ -1 8.80443 109.239 1 10 260
1964286N10112 1964 96 WP MM NOT_NAMED 1964-10-12 18:00:00 NR 8.73303 108.735 main 236 217 __________P___ -1 8.73303 108.735 1 10 264
1964286N10112 1964 96 WP MM NOT_NAMED 1964-10-12 21:00:00 NR 8.69506 108.239 main 208 172 __________P___ -1 8.69506 108.239 1 9 268
1964286N10112 1964 96 WP MM NOT_NAMED 1964-10-13 00:00:00 NR 8.70000 107.800 main 172 149 __________O___ -1 8.70000 107.800 1 7 274
1964286N10112 1964 96 WP MM NOT_NAMED 1964-10-13 03:00:00 NR 8.74435 107.485 main 149 117 __________P___ -1 8.74435 107.485 1 6 283
1964286N10112 1964 96 WP MM NOT_NAMED 1964-10-13 06:00:00 NR 8.83208 107.233 main 117 94 __________P___ -1 8.83208 107.233 1 5 294
1964286N10112 1964 96 WP MM NOT_NAMED 1964-10-13 09:00:00 NR 8.95380 107.013 main 86 62 __________P___ -1 8.95380 107.013 1 5 302
1964286N10112 1964 96 WP MM NOT_NAMED 1964-10-13 12:00:00 NR 9.10000 106.800 main 62 40 __________O___ -1 9.10000 106.800 1 4 300
1964286N10112 1964 96 WP MM NOT_NAMED 1964-10-13 15:00:00 NR 9.16745 106.638 main 40 24 __________P___ -1 9.16745 106.638 1 4 297
1964286N10112 1964 96 WP MM NOT_NAMED 1964-10-13 18:00:00 NR 9.26884 106.462 main 24 10 __________P___ -1 9.26884 106.462 1 5 305
1964286N10112 1964 96 WP MM NOT_NAMED 1964-10-13 21:00:00 NR 9.46085 106.206 main 10 0 __________P___ -1 9.46085 106.206 1 8 309
1964286N10112 1964 96 WP MM NOT_NAMED 1964-10-14 00:00:00 NR 9.80000 105.800 main 0 0 __________O___ -1 9.80000 105.800 1 14 313
1964286N10112 1964 96 WP MM NOT_NAMED 1964-10-14 03:00:00 NR 10.3980 105.192 main 0 0 __________P___ -1 10.3980 105.192 1 19 315
1964286N10112 1964 96 WP MM NOT_NAMED 1964-10-14 06:00:00 NR 11.1327 104.427 main 0 0 __________P___ -1 11.1327 104.427 1 22 313
1964286N10112 1964 96 WP MM NOT_NAMED 1964-10-14 09:00:00 NR 11.9009 103.548 main 0 0 __________P___ -1 11.9009 103.548 1 23 309
1964286N10112 1964 96 WP MM NOT_NAMED 1964-10-14 12:00:00 NR 12.6000 102.600 main 0 0 __________O___ -1 12.6000 102.600 1 23 304
1964286N10112 1964 96 WP MM NOT_NAMED 1964-10-14 15:00:00 NR 13.2051 101.603 main 0 0 __________P___ -1 13.2051 101.603 1 23 299
1964286N10112 1964 96 WP MM NOT_NAMED 1964-10-14 18:00:00 NR 13.7092 100.558 main 0 0 __________P___ -1 13.7092 100.558 1 22 293
1964286N10112 1964 96 NI BB NOT_NAMED 1964-10-14 21:00:00 NR 14.0584 99.5344 main 0 0 __________P___ -1 14.0584 99.5344 1 20 284
1964286N10112 1964 96 NI BB NOT_NAMED 1964-10-15 00:00:00 NR 14.2000 98.6000 main 0 0 __________O___ -1 14.2000 98.6000 1 16 272
1964286N10112 1964 96 NI BB NOT_NAMED 1964-10-15 03:00:00 NR 14.1053 97.8593 main 21 21 __________P___ -1 14.1053 97.8593 1 14 254
1964286N10112 1964 96 NI BB NOT_NAMED 1964-10-15 06:00:00 NR 13.8094 97.2152 main 97 97 __________P___ -1 13.8094 97.2152 1 14 239
1964286N10112 1964 96 NI BB NOT_NAMED 1964-10-15 09:00:00 NR 13.3839 96.6136 main 163 163 __________P___ -1 13.3839 96.6136 1 15 232
1964286N10112 1964 96 NI BB NOT_NAMED 1964-10-15 12:00:00 NR 12.9000 96.0000 main 240 240 __________O___ -1 12.9000 96.0000 1 17 230
1964286N10112 1964 96 NI BB NOT_NAMED 1964-10-15 15:00:00 NR 12.2933 95.2894 main 336 336 __________P___ -1 12.2933 95.2894 1 19 229
1964286N10112 1964 96 NI BB NOT_NAMED 1964-10-15 18:00:00 NR 11.6723 94.5601 main 425 425 __________P___ -1 11.6723 94.5601 1 18 232
1964286N10112 1964 96 NI BB NOT_NAMED 1964-10-15 21:00:00 NR 11.1901 93.8261 main 517 517 __________P___ -1 11.1901 93.8261 1 16 245
1964286N10112 1964 96 NI BB NOT_NAMED 1964-10-16 00:00:00 NR 11.0000 93.1000 main 555 548 __________O___ -1 11.0000 93.1000 1 14 274
1964286N10112 1964 96 NI BB NOT_NAMED 1964-10-16 03:00:00 NR 11.2983 92.4117 main 548 519 __________P___ -1 11.2983 92.4117 1 16 303
1964286N10112 1964 96 NI BB NOT_NAMED 1964-10-16 06:00:00 NR 11.8914 91.7255 main 525 504 __________P___ -1 11.8914 91.7255 1 19 315
1964286N10112 1964 96 NI BB NOT_NAMED 1964-10-16 09:00:00 NR 12.6389 91.0263 main 512 504 __________P___ -1 12.6389 91.0263 1 21 317
1964286N10112 1964 96 NI BB NOT_NAMED 1964-10-16 12:00:00 NR 13.4000 90.3000 main 510 510 __________O___ -1 13.4000 90.3000 1 20 315
1964286N10112 1964 96 NI BB NOT_NAMED 1964-10-16 15:00:00 NR 14.0629 89.5372 main 547 547 __________P___ -1 14.0629 89.5372 1 20 309
1964286N10112 1964 96 NI BB NOT_NAMED 1964-10-16 18:00:00 NR 14.6299 88.7435 main 610 547 __________P___ -1 14.6299 88.7435 1 19 304
1964286N10112 1964 96 NI BB NOT_NAMED 1964-10-16 21:00:00 NR 15.1320 87.9280 main 540 439 __________P___ -1 15.1320 87.9280 1 19 301
1964286N10112 1964 96 NI BB NOT_NAMED 1964-10-17 00:00:00 NR 15.6000 87.1000 main 439 __________O___ -1 15.6000 87.1000 1 19 300

デジタル台風データ・検索

IBTrACS Databaseについて

本データベースは、米国NOAAが公開する1842年以降の世界の熱帯低気圧のベストトラックデータアーカイブInternational Best Track Archive for Climate Stewardship (IBTrACS)を、ウェブで閲覧しやすい形式に変換したものです。

最終更新日:2021-10-21